logo
Rechercher aéroport 
image banner adimage banner adimage banner ad
image banner ad

YCAVE - Caveside

Situé à Caveside, Australia

ICAO - , IATA -

Données fournies par Airmate  

Information générale

Coordonnées: S41°36'55" E146°27'1"
Élévation : 987 feet MSL.
Variation magnétique : 14° East
Voir autres Aéroports à Tasmania

Données opérationnelles

Special qualification required
Heure actuelle UTC:
Heure actuelle locale:
Météo à : YMLT - Launceston ( 64 km )
METAR: YMLT 251700Z AUTO 19003KT 9999 // NCD 01/00 Q1027 RF00.0/000.0
TAF: TAF YMLT 251122Z 2512/2612 VRB03KT CAVOK FM260300 34008KT 9999 SCT030
Voir NOTAMs / SUP AIP / TFR affectant cet aéroport [VIEW]
Fréquences de communication: [VIEW]

Pistes:

Identifiant RWYQFULongueur (ft)Largeur (ft)SurfaceLDA (ft)
35152469GRAS
17187°152469GRAS

Coordonnées de l'aéroport

Adresse: Caveside Australia

Vue satellite de YCAVE